createdAt,value
2019-03-25T00:01:35.962Z,99559.61
2019-03-25T00:04:06.222Z,99562.28
2019-03-25T00:06:42.087Z,99563.03
2019-03-25T00:09:14.783Z,99554.75
2019-03-25T00:11:45.076Z,99549.88
2019-03-25T00:14:14.790Z,99548.25
2019-03-25T00:16:45.408Z,99550.30
2019-03-25T00:19:15.665Z,99553.05
2019-03-25T00:21:45.745Z,99549.56
2019-03-25T00:24:17.847Z,99551.08
2019-03-25T00:26:47.588Z,99548.54
2019-03-25T00:29:20.724Z,99542.12
2019-03-25T00:31:51.915Z,99544.41
2019-03-25T00:34:23.197Z,99541.38
2019-03-25T00:36:58.606Z,99535.73
2019-03-25T00:39:31.809Z,99532.33
2019-03-25T00:42:05.149Z,99532.02
2019-03-25T00:44:35.686Z,99527.67
2019-03-25T00:47:06.883Z,99531.47
2019-03-25T00:49:37.233Z,99532.47
2019-03-25T00:52:07.463Z,99526.34
2019-03-25T00:54:49.374Z,99528.05
2019-03-25T00:57:15.226Z,99531.31
2019-03-25T00:59:48.925Z,99531.00
2019-03-25T01:02:20.191Z,99535.16
2019-03-25T01:04:54.915Z,99538.63
2019-03-25T01:07:29.326Z,99537.54
2019-03-25T01:10:07.542Z,99535.56
2019-03-25T01:12:38.710Z,99531.98
2019-03-25T01:15:09.963Z,99534.73
2019-03-25T01:17:42.203Z,99525.48
2019-03-25T01:20:12.923Z,99520.03
2019-03-25T01:22:44.020Z,99517.00
2019-03-25T01:25:15.067Z,99517.86
2019-03-25T01:27:45.850Z,99513.87
2019-03-25T01:30:16.857Z,99510.09
2019-03-25T01:32:48.639Z,99509.08
2019-03-25T01:35:18.639Z,99501.12
2019-03-25T01:37:51.236Z,99498.64
2019-03-25T01:40:22.026Z,99492.59
2019-03-25T01:42:51.829Z,99489.84
2019-03-25T01:45:22.435Z,99481.60
2019-03-25T01:47:53.997Z,99483.14
2019-03-25T01:50:28.638Z,99485.55
2019-03-25T01:53:04.105Z,99482.11
2019-03-25T01:55:35.834Z,99481.16
2019-03-25T01:58:05.589Z,99470.02
2019-03-25T02:00:37.709Z,99467.48
2019-03-25T02:03:07.931Z,99463.88
2019-03-25T02:05:38.812Z,99460.83
2019-03-25T02:08:08.519Z,99465.16
2019-03-25T02:10:43.924Z,99461.84
2019-03-25T02:13:14.199Z,99461.90
2019-03-25T02:15:45.415Z,99455.49
2019-03-25T02:18:15.490Z,99455.62
2019-03-25T02:20:45.892Z,99453.02
2019-03-25T02:23:16.760Z,99449.19
2019-03-25T02:25:49.393Z,99454.34
2019-03-25T02:28:20.644Z,99451.48
2019-03-25T02:30:52.595Z,99452.78
2019-03-25T02:33:24.692Z,99453.34
2019-03-25T02:35:54.465Z,99452.98
2019-03-25T02:38:24.802Z,99446.27
2019-03-25T02:40:54.909Z,99448.55
2019-03-25T02:43:26.531Z,99439.67
2019-03-25T02:45:56.955Z,99440.78
2019-03-25T02:48:27.303Z,99433.12
2019-03-25T02:50:57.017Z,99428.33
2019-03-25T02:53:27.153Z,99428.77
2019-03-25T02:55:58.013Z,99421.97
2019-03-25T02:58:28.835Z,99415.77
2019-03-25T03:00:59.625Z,99416.33
2019-03-25T03:03:29.968Z,99416.16
2019-03-25T03:05:59.965Z,99405.02
2019-03-25T03:08:32.970Z,99408.19
2019-03-25T03:11:07.851Z,99398.80
2019-03-25T03:13:38.491Z,99396.31
2019-03-25T03:16:08.762Z,99386.09
2019-03-25T03:18:39.132Z,99387.41
2019-03-25T03:21:08.842Z,99381.09
2019-03-25T03:23:39.742Z,99374.48
2019-03-25T03:26:10.612Z,99376.25
2019-03-25T03:28:44.806Z,99381.78
2019-03-25T03:31:16.380Z,99372.91
2019-03-25T03:33:47.745Z,99365.11
2019-03-25T03:36:17.749Z,99369.05
2019-03-25T03:38:47.779Z,99355.33
2019-03-25T03:41:21.206Z,99353.55
2019-03-25T03:43:51.757Z,99343.12
2019-03-25T03:46:22.478Z,99336.02
2019-03-25T03:48:55.129Z,99342.53
2019-03-25T03:51:26.017Z,99345.05
2019-03-25T03:53:57.874Z,99337.77
2019-03-25T03:56:28.959Z,99337.87
2019-03-25T03:59:01.236Z,99332.72
2019-03-25T04:01:32.060Z,99322.20
2019-03-25T04:04:03.125Z,99328.98
2019-03-25T04:06:33.473Z,99320.11
2019-03-25T04:09:06.019Z,99309.00
2019-03-25T04:11:36.659Z,99308.09
2019-03-25T04:14:06.791Z,99300.70
2019-03-25T04:16:36.507Z,99307.30
2019-03-25T04:19:08.426Z,99302.22
2019-03-25T04:21:38.515Z,99296.60
2019-03-25T04:24:10.544Z,99296.83
2019-03-25T04:26:41.051Z,99282.43
2019-03-25T04:29:11.589Z,99287.50
2019-03-25T04:31:42.645Z,99289.15
2019-03-25T04:34:13.099Z,99289.47
2019-03-25T04:36:44.417Z,99290.99
2019-03-25T04:39:15.452Z,99285.37
2019-03-25T04:41:49.051Z,99282.36
2019-03-25T04:44:21.173Z,99289.78
2019-03-25T04:46:51.263Z,99296.84
2019-03-25T04:49:22.054Z,99294.05
2019-03-25T04:51:56.413Z,99290.56
2019-03-25T04:54:26.504Z,99293.98
2019-03-25T04:56:56.599Z,99293.35
2019-03-25T04:59:27.490Z,99282.93
2019-03-25T05:01:57.603Z,99273.48
2019-03-25T05:04:28.164Z,99273.78
2019-03-25T05:06:59.353Z,99276.85
2019-03-25T05:09:32.381Z,99272.73
2019-03-25T05:12:02.983Z,99271.22
2019-03-25T05:14:33.403Z,99266.52
2019-03-25T05:17:07.733Z,99255.19
2019-03-25T05:19:38.346Z,99260.55
2019-03-25T05:22:11.064Z,99261.45
2019-03-25T05:24:40.811Z,99263.06
2019-03-25T05:27:15.589Z,99267.17
2019-03-25T05:29:51.883Z,99250.75
2019-03-25T05:32:26.773Z,99274.94
2019-03-25T05:34:58.571Z,99271.05
2019-03-25T05:37:28.884Z,99263.73
2019-03-25T05:39:58.897Z,99252.86
2019-03-25T05:42:30.449Z,99259.38
2019-03-25T05:45:02.577Z,99257.12
2019-03-25T05:47:32.666Z,99262.61
2019-03-25T05:50:05.306Z,99252.66
2019-03-25T05:52:38.054Z,99255.06
2019-03-25T05:55:08.725Z,99266.73
2019-03-25T05:57:42.186Z,99261.16
2019-03-25T06:00:14.425Z,99270.46
2019-03-25T06:02:45.629Z,99259.41
2019-03-25T06:05:15.868Z,99254.04
2019-03-25T06:07:45.878Z,99249.50
2019-03-25T06:10:17.777Z,99249.72
2019-03-25T06:12:48.784Z,99245.19
2019-03-25T06:15:20.599Z,99241.63
2019-03-25T06:17:53.062Z,99233.06
2019-03-25T06:20:23.033Z,99238.37
2019-03-25T06:22:53.559Z,99235.10
2019-03-25T06:25:23.996Z,99243.13
2019-03-25T06:27:55.390Z,99237.44
2019-03-25T06:30:25.832Z,99244.33
2019-03-25T06:32:57.869Z,99238.50
2019-03-25T06:35:29.656Z,99238.50
2019-03-25T06:37:59.670Z,99243.80
2019-03-25T06:40:34.659Z,99239.03
2019-03-25T06:43:05.921Z,99236.41
2019-03-25T06:45:36.376Z,99230.03
2019-03-25T06:48:08.198Z,99220.46
2019-03-25T06:50:38.542Z,99231.39
2019-03-25T06:53:09.444Z,99228.83
2019-03-25T06:55:39.908Z,99234.47
2019-03-25T06:58:12.966Z,99240.60
2019-03-25T07:00:43.890Z,99250.80
2019-03-25T07:03:14.136Z,99248.67
2019-03-25T07:05:45.515Z,99256.91
2019-03-25T07:08:17.537Z,99263.66
2019-03-25T07:10:50.636Z,99257.89
2019-03-25T07:13:21.203Z,99261.79
2019-03-25T07:15:55.412Z,99263.13
2019-03-25T07:18:27.824Z,99269.41
2019-03-25T07:21:01.548Z,99275.14
2019-03-25T07:23:34.667Z,99283.94
2019-03-25T07:26:26.267Z,99288.61
2019-03-25T07:28:57.664Z,99308.22
2019-03-25T07:31:27.460Z,99316.73
2019-03-25T07:33:57.228Z,99315.75
2019-03-25T07:36:27.582Z,99318.95
2019-03-25T07:39:00.130Z,99319.34
2019-03-25T07:41:30.801Z,99315.36
2019-03-25T07:44:01.535Z,99324.87
2019-03-25T07:46:31.545Z,99318.04
2019-03-25T07:49:01.862Z,99331.16
2019-03-25T07:51:32.264Z,99325.33
2019-03-25T07:54:02.953Z,99327.39
2019-03-25T07:56:34.316Z,99331.37
2019-03-25T07:59:07.908Z,99337.84
2019-03-25T08:01:39.098Z,99336.70
2019-03-25T08:04:10.542Z,99346.52
2019-03-25T08:06:41.052Z,99351.70
2019-03-25T08:09:12.662Z,99347.94
2019-03-25T08:11:44.928Z,99340.61
2019-03-25T08:14:15.539Z,99342.19
2019-03-25T08:16:47.264Z,99353.60
2019-03-25T08:19:19.723Z,99346.91
2019-03-25T08:21:50.611Z,99348.81
2019-03-25T08:24:22.370Z,99344.16
2019-03-25T08:26:52.954Z,99347.60
2019-03-25T08:29:22.694Z,99355.91
2019-03-25T08:31:53.357Z,99334.25
2019-03-25T08:34:23.571Z,99339.53
2019-03-25T08:36:54.276Z,99344.20
2019-03-25T08:39:24.355Z,99333.87
2019-03-25T08:41:54.105Z,99328.66
2019-03-25T08:44:23.845Z,99337.70
2019-03-25T08:46:55.427Z,99351.62
2019-03-25T08:49:25.209Z,99352.04
2019-03-25T08:51:55.323Z,99357.34
2019-03-25T08:54:27.487Z,99367.66
2019-03-25T08:56:57.787Z,99372.45
2019-03-25T08:59:27.715Z,99366.14
2019-03-25T09:01:57.494Z,99354.63
2019-03-25T09:04:27.969Z,99360.02
2019-03-25T09:06:57.748Z,99358.41
2019-03-25T09:09:27.839Z,99340.62
2019-03-25T09:11:57.617Z,99333.72
2019-03-25T09:14:28.224Z,99337.73
2019-03-25T09:17:00.658Z,99328.33
2019-03-25T09:19:31.246Z,99321.79
2019-03-25T09:22:01.284Z,99310.04
2019-03-25T09:24:33.137Z,99311.80
2019-03-25T09:27:05.374Z,99317.83
2019-03-25T09:29:35.489Z,99307.57
2019-03-25T09:32:05.658Z,99305.36
2019-03-25T09:34:35.418Z,99321.39
2019-03-25T09:37:05.845Z,99299.40
2019-03-25T09:39:35.861Z,99302.79
2019-03-25T09:42:05.628Z,99298.31
2019-03-25T09:44:35.344Z,99299.38
2019-03-25T09:47:05.120Z,99313.02
2019-03-25T09:49:34.955Z,99310.66
2019-03-25T09:52:07.735Z,99304.23
2019-03-25T09:54:38.155Z,99345.44
2019-03-25T09:57:07.948Z,99332.73
2019-03-25T09:59:38.524Z,99325.13
2019-03-25T10:02:09.215Z,99309.99
2019-03-25T10:04:38.959Z,99305.95
2019-03-25T10:07:12.229Z,99298.05
2019-03-25T10:09:43.538Z,99300.72
2019-03-25T10:12:16.596Z,99290.61
2019-03-25T10:14:48.851Z,99282.86
2019-03-25T10:17:21.432Z,99285.61
2019-03-25T10:19:52.568Z,99286.84
2019-03-25T10:22:23.672Z,99289.96
2019-03-25T10:24:53.412Z,99271.98
2019-03-25T10:27:23.516Z,99282.06
2019-03-25T10:29:54.132Z,99278.89
2019-03-25T10:32:25.307Z,99281.20
2019-03-25T10:34:58.532Z,99282.75
2019-03-25T10:37:29.922Z,99298.02
2019-03-25T10:40:00.417Z,99282.12
2019-03-25T10:42:30.678Z,99287.65
2019-03-25T10:45:00.930Z,99287.02
2019-03-25T10:47:41.799Z,99283.23
2019-03-25T10:50:13.153Z,99277.39
2019-03-25T10:52:47.817Z,99281.03
2019-03-25T10:55:18.381Z,99285.94
2019-03-25T10:57:52.306Z,99280.86
2019-03-25T11:00:24.311Z,99280.05
2019-03-25T11:02:56.149Z,99283.52
2019-03-25T11:05:26.015Z,99299.27
2019-03-25T11:07:56.124Z,99307.54
2019-03-25T11:10:25.933Z,99318.80
2019-03-25T11:12:55.998Z,99325.45
2019-03-25T11:15:26.581Z,99321.11
2019-03-25T11:17:56.303Z,99315.25
2019-03-25T11:20:26.343Z,99312.03
2019-03-25T11:22:58.938Z,99309.78
2019-03-25T11:25:28.799Z,99311.40
2019-03-25T11:27:58.540Z,99298.25
2019-03-25T11:30:56.883Z,99298.33
2019-03-25T11:33:29.138Z,99295.30
2019-03-25T11:36:02.812Z,99293.45
2019-03-25T11:38:33.463Z,99292.98
2019-03-25T11:41:06.217Z,99296.45
2019-03-25T11:43:36.497Z,99293.82
2019-03-25T11:46:07.897Z,99305.91
2019-03-25T11:48:38.467Z,99302.72
2019-03-25T11:51:08.655Z,99303.55
2019-03-25T11:53:38.368Z,99297.80
2019-03-25T11:56:09.014Z,99300.20
2019-03-25T11:58:39.158Z,99298.13
2019-03-25T12:01:10.878Z,99295.09
2019-03-25T12:03:40.949Z,99296.85
2019-03-25T12:06:12.340Z,99304.84
2019-03-25T12:08:43.283Z,99294.25
2019-03-25T12:11:16.112Z,99310.42
2019-03-25T12:13:45.893Z,99326.90
2019-03-25T12:16:19.237Z,99331.69
2019-03-25T12:18:49.253Z,99320.79
2019-03-25T12:21:19.552Z,99313.64
2019-03-25T12:23:54.838Z,99316.73
2019-03-25T12:26:25.270Z,99323.37
2019-03-25T12:28:56.535Z,99333.13
2019-03-25T12:31:26.321Z,99333.34
2019-03-25T12:33:56.898Z,99329.63
2019-03-25T12:36:28.999Z,99330.37
2019-03-25T12:38:59.058Z,99335.63
2019-03-25T12:41:29.650Z,99332.17
2019-03-25T12:44:00.638Z,99343.47
2019-03-25T12:46:30.658Z,99340.86
2019-03-25T12:49:00.737Z,99340.25
2019-03-25T12:51:30.635Z,99345.42
2019-03-25T12:54:00.614Z,99346.05
2019-03-25T12:56:30.848Z,99343.56
2019-03-25T12:59:00.974Z,99339.36
2019-03-25T13:01:32.101Z,99340.98
2019-03-25T13:04:13.425Z,99344.92
2019-03-25T13:06:43.217Z,99349.59
2019-03-25T13:09:15.070Z,99350.11
2019-03-25T13:11:45.791Z,99351.16
2019-03-25T13:14:16.027Z,99359.78
2019-03-25T13:16:45.978Z,99348.76
2019-03-25T13:19:17.124Z,99365.67
2019-03-25T13:21:47.916Z,99360.47
2019-03-25T13:24:18.632Z,99378.34
2019-03-25T13:26:50.460Z,99380.32
2019-03-25T13:29:21.390Z,99368.93
2019-03-25T13:31:52.076Z,99368.30
2019-03-25T13:34:23.178Z,99347.05
2019-03-25T13:36:54.672Z,99362.63
2019-03-25T13:39:24.820Z,99355.13
2019-03-25T13:41:54.603Z,99355.43
2019-03-25T13:44:24.416Z,99367.69
2019-03-25T13:46:56.359Z,99369.02
2019-03-25T13:49:28.303Z,99378.25
2019-03-25T13:51:58.431Z,99384.67
2019-03-25T13:54:30.000Z,99380.02
2019-03-25T13:57:01.275Z,99376.03
2019-03-25T13:59:31.439Z,99361.41
2019-03-25T14:02:02.016Z,99353.65
2019-03-25T14:04:31.761Z,99357.99
2019-03-25T14:07:03.862Z,99360.80
2019-03-25T14:09:33.576Z,99360.00
2019-03-25T14:12:03.761Z,99357.99
2019-03-25T14:14:34.119Z,99354.59
2019-03-25T14:17:07.017Z,99349.77
2019-03-25T14:19:36.791Z,99362.11
2019-03-25T14:22:07.432Z,99370.41
2019-03-25T14:24:37.182Z,99382.58
2019-03-25T14:27:06.993Z,99388.32
2019-03-25T14:29:37.180Z,99390.45
2019-03-25T14:32:06.999Z,99392.38
2019-03-25T14:34:44.755Z,99390.50
2019-03-25T14:37:09.625Z,99380.15
2019-03-25T14:39:39.385Z,99384.92
2019-03-25T14:42:09.918Z,99384.16
2019-03-25T14:44:40.434Z,99392.58
2019-03-25T14:47:10.631Z,99382.38
2019-03-25T14:49:40.429Z,99368.14
2019-03-25T14:52:14.220Z,99378.56
2019-03-25T14:57:39.033Z,99380.89
2019-03-25T15:00:09.656Z,99371.47
2019-03-25T15:02:40.948Z,99374.97
2019-03-25T15:05:11.727Z,99390.31
2019-03-25T15:07:41.650Z,99383.89
2019-03-25T15:10:11.768Z,99392.24
2019-03-25T15:12:42.153Z,99398.07
2019-03-25T15:15:12.376Z,99401.86
2019-03-25T15:17:42.961Z,99394.75
2019-03-25T15:20:17.378Z,99401.52
2019-03-25T15:22:47.122Z,99410.43
2019-03-25T15:25:17.166Z,99419.02
2019-03-25T15:27:47.547Z,99418.33
2019-03-25T15:30:18.879Z,99422.14
2019-03-25T15:32:50.507Z,99430.18
2019-03-25T15:35:20.199Z,99429.94
2019-03-25T15:37:49.937Z,99434.72
2019-03-25T15:40:21.633Z,99452.02
2019-03-25T15:42:51.749Z,99447.57
2019-03-25T15:45:22.881Z,99442.86
2019-03-25T15:47:52.666Z,99455.73
2019-03-25T15:50:23.450Z,99461.83
2019-03-25T15:52:53.557Z,99473.02
2019-03-25T15:55:23.322Z,99486.59
2019-03-25T15:57:53.061Z,99483.92
2019-03-25T16:00:23.177Z,99474.02
2019-03-25T16:02:52.910Z,99482.31
2019-03-25T16:05:23.115Z,99491.91
2019-03-25T16:07:52.864Z,99481.85
2019-03-25T16:10:24.425Z,99500.59
2019-03-25T16:12:54.185Z,99511.65
2019-03-25T16:15:44.333Z,99509.28
2019-03-25T16:18:43.026Z,99503.94
2019-03-25T16:21:13.295Z,99496.94
2019-03-25T16:23:44.497Z,99503.02
2019-03-25T16:26:14.250Z,99504.07
2019-03-25T16:28:46.455Z,99501.70
2019-03-25T16:31:17.555Z,99508.07
2019-03-25T16:33:53.860Z,99515.47
2019-03-25T16:36:25.073Z,99531.28
2019-03-25T16:38:54.848Z,99531.25
2019-03-25T16:41:26.110Z,99518.81
2019-03-25T16:43:56.885Z,99526.35
2019-03-25T16:46:27.443Z,99538.22
2019-03-25T16:48:58.766Z,99532.00
2019-03-25T16:51:30.719Z,99538.20
2019-03-25T16:54:01.525Z,99549.44
2019-03-25T16:56:31.560Z,99562.13
2019-03-25T16:59:05.891Z,99555.63
2019-03-25T17:01:37.428Z,99542.31
2019-03-25T17:04:08.085Z,99554.08
2019-03-25T17:06:39.394Z,99558.87
2019-03-25T17:09:09.319Z,99558.41
2019-03-25T17:11:41.227Z,99569.38
2019-03-25T17:14:10.996Z,99572.00
2019-03-25T17:16:43.835Z,99571.27
2019-03-25T17:19:13.848Z,99577.40
2019-03-25T17:21:44.526Z,99578.27
2019-03-25T17:24:14.651Z,99584.01
2019-03-25T17:26:44.479Z,99579.68
2019-03-25T17:29:14.453Z,99586.00
2019-03-25T17:31:46.457Z,99580.30
2019-03-25T17:34:18.903Z,99574.99
2019-03-25T17:36:50.868Z,99574.23
2019-03-25T17:39:25.491Z,99579.44
2019-03-25T17:41:57.348Z,99580.42
2019-03-25T17:44:27.481Z,99582.88
2019-03-25T17:46:58.166Z,99591.70
2019-03-25T17:49:28.336Z,99594.33
2019-03-25T17:51:59.269Z,99598.05
2019-03-25T17:54:29.341Z,99609.09
2019-03-25T17:56:59.409Z,99625.63
2019-03-25T17:59:29.438Z,99632.67
2019-03-25T18:02:05.243Z,99642.41
2019-03-25T18:04:36.822Z,99651.20
2019-03-25T18:07:10.429Z,99650.68
2019-03-25T18:09:41.099Z,99642.92
2019-03-25T18:12:11.547Z,99649.34
2019-03-25T18:14:41.642Z,99658.02
2019-03-25T18:17:11.728Z,99669.92
2019-03-25T18:19:42.623Z,99671.09
2019-03-25T18:22:12.624Z,99683.29
2019-03-25T18:24:43.795Z,99683.14
2019-03-25T18:27:13.583Z,99681.77
2019-03-25T18:29:45.987Z,99689.91
2019-03-25T18:32:17.454Z,99694.84
2019-03-25T18:34:47.792Z,99690.45
2019-03-25T18:37:18.472Z,99693.30
2019-03-25T18:39:49.475Z,99695.93
2019-03-25T18:42:20.062Z,99700.41
2019-03-25T18:44:50.830Z,99710.47
2019-03-25T18:47:21.968Z,99713.55
2019-03-25T18:49:51.718Z,99715.53
2019-03-25T18:52:23.112Z,99716.36
2019-03-25T18:54:53.168Z,99724.58
2019-03-25T18:57:23.291Z,99733.14
2019-03-25T18:59:54.478Z,99732.67
2019-03-25T19:02:27.150Z,99728.73
2019-03-25T19:04:59.088Z,99739.81
2019-03-25T19:07:28.804Z,99749.40
2019-03-25T19:09:58.521Z,99758.00
2019-03-25T19:12:28.308Z,99767.77
2019-03-25T19:14:58.091Z,99772.16
2019-03-25T19:17:29.128Z,99777.93
2019-03-25T19:19:58.843Z,99779.52
2019-03-25T19:22:28.618Z,99784.21
2019-03-25T19:24:59.986Z,99793.06
2019-03-25T19:27:30.387Z,99793.57
2019-03-25T19:30:01.892Z,99791.86
2019-03-25T19:32:34.111Z,99797.44
2019-03-25T19:35:04.135Z,99801.77
2019-03-25T19:37:34.290Z,99802.18
2019-03-25T19:40:04.855Z,99814.10
2019-03-25T19:42:35.447Z,99818.26
2019-03-25T19:45:05.218Z,99822.95
2019-03-25T19:47:35.939Z,99819.73
2019-03-25T19:50:08.929Z,99835.39
2019-03-25T19:52:38.948Z,99829.76
2019-03-25T19:55:09.073Z,99839.68
2019-03-25T19:57:38.999Z,99844.23
2019-03-25T20:00:09.851Z,99841.95
2019-03-25T20:02:39.964Z,99841.39
2019-03-25T20:05:10.227Z,99850.88
2019-03-25T20:07:40.329Z,99853.40
2019-03-25T20:10:16.798Z,99856.48
2019-03-25T20:12:49.468Z,99863.95
2019-03-25T20:15:19.171Z,99868.06
2019-03-25T20:17:50.303Z,99874.85
2019-03-25T20:20:21.166Z,99878.59
2019-03-25T20:22:51.041Z,99880.48
2019-03-25T20:25:20.725Z,99886.04
2019-03-25T20:27:50.601Z,99889.70
2019-03-25T20:30:20.446Z,99889.91
2019-03-25T20:32:50.283Z,99891.92
2019-03-25T20:35:20.665Z,99890.16
2019-03-25T20:37:50.843Z,99898.12
2019-03-25T20:40:20.642Z,99909.32
2019-03-25T20:42:50.791Z,99908.45
2019-03-25T20:45:23.361Z,99909.81
2019-03-25T20:47:53.686Z,99911.79
2019-03-25T20:50:25.457Z,99911.14
2019-03-25T20:52:55.193Z,99926.94
2019-03-25T20:55:24.927Z,99933.34
2019-03-25T20:57:54.701Z,99930.42
2019-03-25T21:00:47.830Z,99939.87
2019-03-25T21:03:17.982Z,99946.81
2019-03-25T21:05:47.755Z,99942.03
2019-03-25T21:08:17.521Z,99944.50
2019-03-25T21:10:47.272Z,99945.61
2019-03-25T21:13:17.096Z,99958.32
2019-03-25T21:15:46.904Z,99957.30
2019-03-25T21:18:16.686Z,99958.70
2019-03-25T21:20:46.512Z,99962.38
2019-03-25T21:23:16.460Z,99967.62
2019-03-25T21:25:49.045Z,99977.77
2019-03-25T21:28:18.892Z,99983.52
2019-03-25T21:30:51.764Z,99987.66
2019-03-25T21:33:21.728Z,99990.70
2019-03-25T21:35:51.467Z,99995.98
2019-03-25T21:38:21.634Z,100003.81
2019-03-25T21:40:51.690Z,100002.59
2019-03-25T21:43:21.476Z,100019.28
2019-03-25T21:45:51.724Z,100017.79
2019-03-25T21:48:22.813Z,100021.05
2019-03-25T21:50:53.239Z,100021.81
2019-03-25T21:53:23.073Z,100020.67
2019-03-25T21:55:53.221Z,100031.17
2019-03-25T21:58:23.066Z,100036.01
2019-03-25T22:00:52.821Z,100035.86
2019-03-25T22:03:22.810Z,100029.36
2019-03-25T22:05:52.545Z,100034.51
2019-03-25T22:08:22.282Z,100038.05
2019-03-25T22:10:52.030Z,100045.73
2019-03-25T22:13:23.526Z,100043.64
2019-03-25T22:15:56.128Z,100040.66
2019-03-25T22:18:27.244Z,100046.09
2019-03-25T22:20:56.999Z,100042.07
2019-03-25T22:23:26.739Z,100041.98
2019-03-25T22:25:56.551Z,100045.47
2019-03-25T22:28:27.318Z,100055.05
2019-03-25T22:30:57.506Z,100055.95
2019-03-25T22:33:27.270Z,100056.41
2019-03-25T22:35:58.428Z,100057.77
2019-03-25T22:38:30.492Z,100063.19
2019-03-25T22:41:03.763Z,100071.75
2019-03-25T22:43:38.752Z,100077.67
2019-03-25T22:46:09.026Z,100073.28
2019-03-25T22:48:39.027Z,100072.88
2019-03-25T22:51:10.578Z,100073.86
2019-03-25T22:53:41.404Z,100082.23
2019-03-25T22:56:11.762Z,100080.97
2019-03-25T22:58:42.146Z,100076.34
2019-03-25T23:01:12.071Z,100084.83
2019-03-25T23:03:41.954Z,100083.73
2019-03-25T23:06:11.768Z,100090.70
2019-03-25T23:08:41.799Z,100086.86
2019-03-25T23:11:11.664Z,100090.63
2019-03-25T23:13:41.884Z,100092.46
2019-03-25T23:16:11.939Z,100100.08
2019-03-25T23:18:44.439Z,100099.30
2019-03-25T23:21:21.798Z,100108.47
2019-03-25T23:23:52.375Z,100108.58
2019-03-25T23:26:22.115Z,100117.42
2019-03-25T23:28:51.845Z,100121.42
2019-03-25T23:31:22.599Z,100121.13
2019-03-25T23:33:53.316Z,100119.47
2019-03-25T23:36:24.101Z,100116.67
2019-03-25T23:38:55.380Z,100116.97
2019-03-25T23:41:25.150Z,100111.83
2019-03-25T23:43:55.778Z,100120.62
2019-03-25T23:46:26.079Z,100123.01
2019-03-25T23:48:55.950Z,100122.59
2019-03-25T23:51:27.540Z,100118.08
2019-03-25T23:54:12.193Z,100126.45
2019-03-25T23:56:42.667Z,100125.63
2019-03-25T23:59:13.367Z,100126.90
